Time;durP1;ratioP1;P1;durP2;ratioP2;P2;SDS_P1;SDS_P2;PMS_P1;PMS_P2;Temp;Humidity;BMP_temperature;BMP_pressure;BME280_temperature;BME280_humidity;BME280_pressure;Samples;Min_cycle;Max_cycle;Signal;HPM_P1;HPM_P2
2023/04/09 00:00:07;;;;;;;43.20;20.20;;;;;;;7.64;77.99;101085.64;110452;1269;22311;-58
2023/04/09 00:02:58;;;;;;;43.80;20.80;;;;;;;7.62;77.91;101083.57;110498;1268;22562;-57
2023/04/09 00:05:29;;;;;;;44.20;22.00;;;;;;;7.60;78.01;101080.35;110463;1272;23227;-57
2023/04/09 00:08:01;;;;;;;41.00;20.80;;;;;;;7.60;78.12;101081.92;110484;1261;22937;-59
2023/04/09 00:10:32;;;;;;;47.30;21.30;;;;;;;7.60;77.97;101084.88;110483;1269;22209;-59
2023/04/09 00:13:03;;;;;;;49.00;22.10;;;;;;;7.58;78.01;101089.62;110480;1268;22244;-58
2023/04/09 00:15:35;;;;;;;47.70;22.20;;;;;;;7.57;77.97;101082.90;110466;1268;23202;-59
2023/04/09 00:18:06;;;;;;;46.40;24.10;;;;;;;7.57;78.11;101080.67;108977;1269;22629;-56
2023/04/09 00:20:37;;;;;;;41.70;21.80;;;;;;;7.56;78.07;101077.92;106494;1268;25403;-56
2023/04/09 00:23:08;;;;;;;53.60;23.90;;;;;;;7.56;78.05;101079.42;106473;1260;23013;-54
2023/04/09 00:25:39;;;;;;;45.90;25.00;;;;;;;7.57;78.12;101075.43;106640;1274;25623;-57
2023/04/09 00:28:10;;;;;;;43.60;23.00;;;;;;;7.55;78.04;101076.42;106555;1272;22566;-54
2023/04/09 00:30:42;;;;;;;45.70;22.20;;;;;;;7.54;78.11;101078.84;110471;1259;22190;-58
2023/04/09 00:33:13;;;;;;;42.30;19.80;;;;;;;7.54;78.13;101079.48;110453;1269;22231;-58
2023/04/09 00:35:44;;;;;;;48.30;23.80;;;;;;;7.50;78.01;101085.45;110497;1269;22515;-55
2023/04/09 00:38:15;;;;;;;49.60;24.30;;;;;;;7.48;78.06;101086.86;110465;1267;22220;-57
2023/04/09 00:40:51;;;;;;;45.60;20.70;;;;;;;7.48;78.09;101086.48;110440;1269;22302;-57
2023/04/09 00:43:22;;;;;;;42.70;21.30;;;;;;;7.46;78.11;101087.55;110498;1264;22337;-58
2023/04/09 00:45:53;;;;;;;54.60;24.20;;;;;;;7.45;78.24;101087.66;110484;1267;22441;-59
2023/04/09 00:48:24;;;;;;;50.50;23.00;;;;;;;7.45;78.17;101088.13;110462;1269;22181;-54
2023/04/09 00:50:55;;;;;;;45.00;22.50;;;;;;;7.46;78.30;101087.08;110449;1269;22227;-58
2023/04/09 00:53:27;;;;;;;43.80;22.10;;;;;;;7.43;78.12;101089.05;110466;1259;22428;-58
2023/04/09 00:55:58;;;;;;;45.90;22.00;;;;;;;7.41;78.18;101093.73;110457;1268;22217;-58
2023/04/09 00:58:29;;;;;;;48.70;23.40;;;;;;;7.39;78.34;101091.32;110495;1275;22246;-59
2023/04/09 01:01:01;;;;;;;45.60;23.30;;;;;;;7.37;78.33;101092.02;110453;1260;22390;-59
2023/04/09 01:03:33;;;;;;;47.30;22.10;;;;;;;7.36;78.43;101095.51;110472;1265;22382;-58
2023/04/09 01:06:12;;;;;;;46.60;24.10;;;;;;;7.36;78.51;101099.33;110465;1268;22181;-63
2023/04/09 01:08:51;;;;;;;44.60;22.50;;;;;;;7.37;78.47;101102.33;110448;1268;22202;-56
2023/04/09 01:11:32;;;;;;;45.70;21.80;;;;;;;7.36;78.48;101102.89;110414;1259;22201;-55
2023/04/09 01:14:11;;;;;;;43.80;21.20;;;;;;;7.32;78.60;101102.81;107178;1260;24222;-57
2023/04/09 01:16:48;;;;;;;48.60;22.60;;;;;;;7.30;78.76;101107.64;110468;1275;22199;-57
2023/04/09 01:19:35;;;;;;;44.80;21.70;;;;;;;7.27;78.72;101106.70;110405;1269;22356;-55
2023/04/09 01:22:14;;;;;;;43.50;21.10;;;;;;;7.24;78.81;101110.49;110430;1271;22830;-56
2023/04/09 01:25:00;;;;;;;43.40;21.50;;;;;;;7.21;78.87;101114.29;110478;1259;22189;-57
2023/04/09 01:27:41;;;;;;;54.10;24.00;;;;;;;7.19;78.76;101110.32;110469;1275;22613;-60
2023/04/09 01:30:16;;;;;;;44.40;21.20;;;;;;;7.17;78.79;101109.27;110474;1272;22151;-59
2023/04/09 01:32:48;;;;;;;55.60;24.90;;;;;;;7.14;78.86;101112.02;110504;1270;22546;-58
2023/04/09 01:35:21;;;;;;;53.30;24.60;;;;;;;7.11;78.96;101111.55;110465;1270;22066;-57
2023/04/09 01:37:54;;;;;;;50.40;23.50;;;;;;;7.06;79.04;101110.88;110414;1263;22151;-57
2023/04/09 01:40:26;;;;;;;45.80;22.30;;;;;;;7.01;79.09;101109.48;110474;1269;22393;-57
2023/04/09 01:42:58;;;;;;;51.00;24.90;;;;;;;6.97;79.17;101108.31;110465;1267;23085;-57
2023/04/09 01:45:29;;;;;;;50.10;25.30;;;;;;;6.96;79.47;101110.33;110474;1275;22144;-58
2023/04/09 01:48:01;;;;;;;49.30;24.70;;;;;;;6.95;79.52;101113.77;107645;1265;22513;-56
2023/04/09 01:50:32;;;;;;;47.10;23.40;;;;;;;6.90;79.55;101115.00;110434;1268;22518;-56
2023/04/09 01:53:04;;;;;;;54.60;26.40;;;;;;;6.87;79.78;101118.34;110435;1269;23031;-57
2023/04/09 01:55:34;;;;;;;55.40;25.20;;;;;;;6.84;79.77;101123.16;110461;1268;22319;-57
2023/04/09 01:58:05;;;;;;;48.50;24.00;;;;;;;6.81;80.03;101123.61;110467;1260;22423;-56
2023/04/09 02:00:39;;;;;;;51.20;25.20;;;;;;;6.78;80.08;101124.73;110509;1267;22310;-57
2023/04/09 02:03:18;;;;;;;56.30;26.00;;;;;;;6.74;80.24;101123.30;110483;1263;22194;-58
2023/04/09 02:05:54;;;;;;;49.40;24.50;;;;;;;6.73;80.22;101117.71;110491;1272;22171;-57
2023/04/09 02:08:28;;;;;;;47.50;24.40;;;;;;;6.71;80.32;101122.34;110453;1267;23025;-58
2023/04/09 02:11:03;;;;;;;56.30;26.70;;;;;;;6.72;80.52;101122.25;110459;1267;22197;-57
2023/04/09 02:13:37;;;;;;;54.70;26.80;;;;;;;6.69;80.66;101120.48;109162;1267;22574;-57
2023/04/09 02:16:11;;;;;;;56.00;26.50;;;;;;;6.67;80.64;101124.81;106390;1253;22811;-56
2023/04/09 02:18:42;;;;;;;47.90;24.40;;;;;;;6.64;80.63;101124.00;110449;1275;22155;-54
2023/04/09 02:21:13;;;;;;;60.30;28.10;;;;;;;6.61;80.83;101125.66;110449;1269;22237;-58
2023/04/09 02:23:44;;;;;;;56.40;27.30;;;;;;;6.61;80.82;101126.86;110451;1265;22151;-59
2023/04/09 02:26:16;;;;;;;51.60;26.80;;;;;;;6.61;80.89;101123.69;110456;1272;22222;-57
2023/04/09 02:28:47;;;;;;;49.10;25.40;;;;;;;6.61;80.94;101124.55;110447;1270;22267;-57
2023/04/09 02:31:18;;;;;;;54.80;27.20;;;;;;;6.59;81.06;101122.38;110428;1267;22289;-59
2023/04/09 02:33:49;;;;;;;55.30;28.80;;;;;;;6.59;81.05;101121.92;109380;1269;22510;-58
2023/04/09 02:36:21;;;;;;;54.00;27.70;;;;;;;6.56;81.13;101121.58;106406;1269;22561;-57
2023/04/09 02:38:52;;;;;;;51.10;25.50;;;;;;;6.52;81.28;101123.26;110461;1272;22143;-55
2023/04/09 02:41:23;;;;;;;56.60;27.90;;;;;;;6.48;81.50;101126.35;110450;1270;22402;-57
2023/04/09 02:43:55;;;;;;;52.70;27.20;;;;;;;6.44;81.51;101125.55;110444;1271;22174;-56
2023/04/09 02:46:26;;;;;;;56.80;27.10;;;;;;;6.43;81.57;101125.42;110471;1265;22851;-57
2023/04/09 02:48:57;;;;;;;51.00;26.20;;;;;;;6.44;81.72;101126.12;110485;1268;22225;-59
2023/04/09 02:51:28;;;;;;;55.60;27.30;;;;;;;6.43;81.73;101127.25;110463;1274;22359;-58
2023/04/09 02:53:59;;;;;;;55.20;27.30;;;;;;;6.42;81.77;101126.71;110433;1272;22144;-55
2023/04/09 02:56:30;;;;;;;56.60;28.50;;;;;;;6.42;81.75;101127.75;110512;1267;22273;-57
2023/04/09 02:59:01;;;;;;;57.40;26.90;;;;;;;6.44;81.70;101125.33;110465;1259;22216;-57
2023/04/09 03:01:33;;;;;;;52.30;26.90;;;;;;;6.46;81.91;101126.86;110460;1263;22306;-58
2023/04/09 03:04:04;;;;;;;62.50;29.50;;;;;;;6.45;81.84;101122.13;110448;1267;23151;-57
2023/04/09 03:06:35;;;;;;;62.10;30.80;;;;;;;6.47;82.11;101121.38;110471;1269;22439;-57
2023/04/09 03:09:08;;;;;;;55.00;27.10;;;;;;;6.49;81.97;101123.56;110484;1271;22520;-58
2023/04/09 03:11:39;;;;;;;57.30;28.40;;;;;;;6.45;82.08;101120.23;110458;1267;22184;-58
2023/04/09 03:14:10;;;;;;;55.80;26.80;;;;;;;6.46;82.01;101125.77;110475;1266;22394;-61
2023/04/09 03:16:41;;;;;;;57.20;27.80;;;;;;;6.46;81.97;101123.45;110485;1262;23044;-56
2023/04/09 03:19:12;;;;;;;59.70;28.60;;;;;;;6.46;82.01;101121.31;110484;1267;22147;-58
2023/04/09 03:21:43;;;;;;;58.60;29.80;;;;;;;6.46;82.31;101121.62;110472;1275;22138;-56
2023/04/09 03:24:14;;;;;;;59.20;29.90;;;;;;;6.48;82.34;101122.95;110442;1268;22195;-57
2023/04/09 03:26:45;;;;;;;62.40;31.20;;;;;;;6.50;82.11;101117.82;110481;1261;22142;-59
2023/04/09 03:29:16;;;;;;;66.30;31.30;;;;;;;6.52;82.13;101116.66;110421;1269;22167;-58
2023/04/09 03:31:47;;;;;;;62.70;30.20;;;;;;;6.54;82.16;101120.19;110472;1272;22271;-56
2023/04/09 03:34:18;;;;;;;62.90;30.20;;;;;;;6.57;82.23;101120.37;110442;1267;23081;-57
2023/04/09 03:36:49;;;;;;;65.80;31.00;;;;;;;6.56;82.16;101118.47;110457;1267;22754;-55
2023/04/09 03:39:21;;;;;;;57.30;30.50;;;;;;;6.59;82.12;101113.66;110469;1268;22170;-55
2023/04/09 03:41:52;;;;;;;59.50;29.90;;;;;;;6.62;82.32;101119.30;110447;1268;22151;-58
2023/04/09 03:44:23;;;;;;;60.80;29.90;;;;;;;6.63;82.27;101114.13;110453;1263;22233;-56
2023/04/09 03:46:54;;;;;;;58.90;28.90;;;;;;;6.62;82.33;101113.42;110468;1270;23038;-58
2023/04/09 03:49:25;;;;;;;61.00;28.40;;;;;;;6.60;82.59;101114.98;110473;1269;22219;-57
2023/04/09 03:51:56;;;;;;;63.90;32.80;;;;;;;6.56;82.56;101116.59;110468;1272;22232;-59
2023/04/09 03:54:28;;;;;;;61.20;31.00;;;;;;;6.56;82.88;101119.45;110461;1272;22209;-58
2023/04/09 03:57:00;;;;;;;62.60;32.10;;;;;;;6.57;82.85;101119.89;110478;1265;22160;-58
2023/04/09 03:59:31;;;;;;;59.50;32.00;;;;;;;6.58;83.07;101123.52;110491;1263;22166;-59
2023/04/09 04:02:01;;;;;;;58.30;30.00;;;;;;;6.60;83.25;101126.56;110474;1253;22244;-58
2023/04/09 04:04:32;;;;;;;63.40;31.70;;;;;;;6.61;83.38;101129.77;110470;1267;22763;-59
2023/04/09 04:07:04;;;;;;;64.00;31.30;;;;;;;6.64;83.42;101131.00;109353;1260;22657;-57
2023/04/09 04:09:35;;;;;;;62.20;31.50;;;;;;;6.66;83.26;101133.17;106506;1274;22632;-58
2023/04/09 04:12:07;;;;;;;61.20;31.10;;;;;;;6.67;83.41;101135.99;110405;1271;22130;-60
2023/04/09 04:14:38;;;;;;;60.80;30.70;;;;;;;6.68;83.27;101139.07;110405;1271;22237;-58
2023/04/09 04:17:09;;;;;;;62.70;30.50;;;;;;;6.66;83.30;101138.70;110459;1271;22970;-60
2023/04/09 04:19:39;;;;;;;59.20;31.20;;;;;;;6.65;83.34;101139.30;110415;1272;22355;-59
2023/04/09 04:22:10;;;;;;;63.30;32.70;;;;;;;6.65;83.54;101139.98;110440;1263;23306;-57
2023/04/09 04:24:41;;;;;;;67.20;32.50;;;;;;;6.66;83.73;101141.02;110441;1260;22512;-59
2023/04/09 04:27:12;;;;;;;64.00;31.70;;;;;;;6.66;83.85;101148.86;110449;1265;22982;-58
2023/04/09 04:29:43;;;;;;;63.00;33.80;;;;;;;6.66;83.99;101144.65;110439;1267;22143;-58
2023/04/09 04:32:14;;;;;;;61.50;31.80;;;;;;;6.66;83.93;101144.34;110412;1265;22213;-58
2023/04/09 04:34:48;;;;;;;61.30;30.50;;;;;;;6.62;84.18;101143.88;110430;1265;22174;-59
2023/04/09 04:37:19;;;;;;;65.50;32.80;;;;;;;6.56;84.22;101144.00;110438;1267;23068;-59
2023/04/09 04:39:50;;;;;;;62.90;32.60;;;;;;;6.53;84.56;101147.70;110473;1269;22221;-59
2023/04/09 04:42:21;;;;;;;63.60;30.80;;;;;;;6.51;84.47;101141.50;110422;1265;22227;-60
2023/04/09 04:44:52;;;;;;;63.10;31.20;;;;;;;6.50;84.58;101143.98;110474;1269;23297;-58
2023/04/09 04:47:24;;;;;;;62.40;31.80;;;;;;;6.47;84.66;101145.14;110413;1272;22845;-58
2023/04/09 04:49:55;;;;;;;60.70;31.40;;;;;;;6.47;84.70;101143.34;110458;1267;22175;-58
2023/04/09 04:52:26;;;;;;;62.00;31.00;;;;;;;6.46;84.69;101143.90;110440;1270;22204;-58
2023/04/09 04:54:57;;;;;;;65.20;32.20;;;;;;;6.46;84.79;101145.80;110457;1267;23014;-58
2023/04/09 04:57:28;;;;;;;64.10;33.10;;;;;;;6.46;84.88;101143.66;110430;1263;22375;-58
2023/04/09 04:59:59;;;;;;;63.40;33.20;;;;;;;6.47;84.89;101142.77;110410;1269;22163;-58
2023/04/09 05:02:30;;;;;;;63.90;32.30;;;;;;;6.50;85.11;101147.77;110411;1272;22275;-57
2023/04/09 05:05:01;;;;;;;63.40;32.60;;;;;;;6.55;85.13;101147.36;110407;1266;22127;-57
2023/04/09 05:07:33;;;;;;;69.10;34.20;;;;;;;6.57;85.35;101148.11;110393;1267;22319;-57
2023/04/09 05:10:04;;;;;;;64.30;33.40;;;;;;;6.60;85.24;101146.63;110414;1260;22319;-58
2023/04/09 05:12:35;;;;;;;62.90;32.90;;;;;;;6.59;85.29;101149.27;110402;1275;22314;-58
2023/04/09 05:15:07;;;;;;;62.70;33.60;;;;;;;6.55;85.37;101147.52;110410;1266;22172;-61
2023/04/09 05:17:38;;;;;;;66.00;32.30;;;;;;;6.51;85.50;101150.91;110423;1272;22362;-58
2023/04/09 05:20:12;;;;;;;74.60;34.10;;;;;;;6.48;85.69;101153.54;110428;1273;22191;-58
2023/04/09 05:22:42;;;;;;;65.50;33.90;;;;;;;6.46;86.00;101153.73;110446;1272;22251;-58
2023/04/09 05:25:14;;;;;;;66.20;33.00;;;;;;;6.46;86.14;101156.27;110422;1260;23079;-57
2023/04/09 05:27:45;;;;;;;67.40;33.60;;;;;;;6.45;86.19;101157.33;110412;1275;22230;-59
2023/04/09 05:30:16;;;;;;;65.60;33.20;;;;;;;6.44;86.41;101157.25;110405;1269;22210;-56
2023/04/09 05:32:47;;;;;;;69.10;35.40;;;;;;;6.44;86.58;101156.15;110435;1263;22304;-58
2023/04/09 05:35:18;;;;;;;63.70;32.20;;;;;;;6.43;86.62;101160.05;110462;1269;22106;-57
2023/04/09 05:37:49;;;;;;;66.40;34.80;;;;;;;6.41;86.80;101161.14;110409;1269;22272;-57
2023/04/09 05:40:20;;;;;;;66.20;34.20;;;;;;;6.41;87.03;101162.97;110398;1269;23090;-58
2023/04/09 05:42:50;;;;;;;64.80;32.70;;;;;;;6.40;87.32;101160.98;110415;1275;22187;-57
2023/04/09 05:45:21;;;;;;;69.20;35.40;;;;;;;6.41;87.35;101164.08;110445;1269;22293;-59
2023/04/09 05:47:52;;;;;;;64.30;32.70;;;;;;;6.41;87.60;101165.27;110441;1265;22239;-58
2023/04/09 05:50:23;;;;;;;66.70;33.30;;;;;;;6.39;87.70;101163.38;110448;1260;22815;-58
2023/04/09 05:52:54;;;;;;;63.50;31.70;;;;;;;6.39;87.90;101166.08;110436;1269;22188;-59
2023/04/09 05:55:25;;;;;;;71.60;35.00;;;;;;;6.36;88.04;101169.23;110426;1272;22973;-59
2023/04/09 05:57:56;;;;;;;63.10;33.90;;;;;;;6.35;88.28;101169.48;110459;1265;22249;-59
2023/04/09 06:00:26;;;;;;;72.70;37.00;;;;;;;6.34;88.29;101169.44;110472;1267;22189;-59
2023/04/09 06:02:57;;;;;;;69.50;35.00;;;;;;;6.34;88.58;101168.23;110461;1271;22235;-58
2023/04/09 06:05:29;;;;;;;69.80;36.10;;;;;;;6.35;88.76;101169.81;110436;1273;22141;-59
2023/04/09 06:07:59;;;;;;;62.90;33.00;;;;;;;6.35;88.97;101172.13;110425;1263;22644;-58
2023/04/09 06:10:33;;;;;;;67.90;34.00;;;;;;;6.33;88.91;101164.94;110395;1267;22336;-59
2023/04/09 06:13:04;;;;;;;62.20;32.80;;;;;;;6.31;89.06;101165.14;110427;1260;22355;-59
2023/04/09 06:15:37;;;;;;;71.40;36.40;;;;;;;6.30;89.16;101162.08;110447;1275;22296;-59
2023/04/09 06:18:08;;;;;;;76.40;38.30;;;;;;;6.31;89.18;101164.98;110442;1271;22606;-59
2023/04/09 06:20:39;;;;;;;73.30;37.30;;;;;;;6.32;89.39;101166.15;106276;1272;5431934;-58
2023/04/09 06:23:10;;;;;;;75.80;38.80;;;;;;;6.34;89.66;101163.09;110401;1260;22275;-58
2023/04/09 06:25:41;;;;;;;69.20;35.10;;;;;;;6.36;89.95;101158.94;110442;1271;22256;-57
2023/04/09 06:28:11;;;;;;;78.40;39.40;;;;;;;6.37;90.05;101160.80;110436;1267;22371;-58
2023/04/09 06:30:42;;;;;;;65.40;34.50;;;;;;;6.41;90.19;101162.86;110407;1275;22299;-59
2023/04/09 06:33:13;;;;;;;71.10;35.40;;;;;;;6.42;90.41;101163.63;110385;1264;22154;-57
2023/04/09 06:35:44;;;;;;;68.20;35.00;;;;;;;6.43;90.39;101162.20;110421;1260;22242;-58
2023/04/09 06:38:15;;;;;;;72.60;36.80;;;;;;;6.44;90.28;101163.83;110439;1272;22235;-58
2023/04/09 06:40:46;;;;;;;72.20;37.80;;;;;;;6.44;90.56;101159.88;110400;1273;22224;-56
2023/04/09 06:43:17;;;;;;;73.20;37.30;;;;;;;6.43;90.80;101160.92;110451;1267;22239;-57
2023/04/09 06:45:48;;;;;;;76.60;37.20;;;;;;;6.42;90.96;101172.38;110430;1275;22193;-57
2023/04/09 06:48:19;;;;;;;75.80;38.50;;;;;;;6.39;90.84;101164.73;110465;1267;22322;-58
2023/04/09 06:50:50;;;;;;;70.80;35.20;;;;;;;6.39;90.98;101166.64;110412;1263;22177;-58
2023/04/09 06:53:20;;;;;;;70.00;36.70;;;;;;;6.38;91.11;101167.84;110429;1267;22249;-59
2023/04/09 06:55:52;;;;;;;67.90;35.80;;;;;;;6.38;91.10;101169.91;110444;1267;22179;-57
2023/04/09 06:58:23;;;;;;;70.70;35.00;;;;;;;6.39;91.09;101167.76;110406;1267;23309;-58
2023/04/09 07:00:54;;;;;;;69.90;34.10;;;;;;;6.40;91.40;101171.38;110439;1275;22212;-58
2023/04/09 07:03:26;;;;;;;73.40;37.30;;;;;;;6.40;91.37;101168.91;110450;1267;22190;-58
2023/04/09 07:05:57;;;;;;;69.20;35.00;;;;;;;6.40;91.69;101177.64;110444;1267;22211;-57
2023/04/09 07:08:29;;;;;;;65.30;34.80;;;;;;;6.38;91.82;101187.18;110389;1267;22142;-57
2023/04/09 07:11:00;;;;;;;66.00;33.80;;;;;;;6.35;91.87;101186.92;110439;1263;22201;-56
2023/04/09 07:13:31;;;;;;;69.10;35.00;;;;;;;6.31;92.20;101184.64;110425;1260;23722;-58
2023/04/09 07:16:02;;;;;;;69.20;34.70;;;;;;;6.27;92.38;101188.04;110409;1260;22389;-56
2023/04/09 07:18:33;;;;;;;64.60;31.40;;;;;;;6.23;92.84;101187.48;110432;1260;22479;-55
2023/04/09 07:21:04;;;;;;;64.20;31.90;;;;;;;6.19;92.86;101187.34;110398;1264;22824;-54
2023/04/09 07:23:37;;;;;;;71.50;34.50;;;;;;;6.15;92.69;101182.98;110449;1261;22205;-59
2023/04/09 07:26:08;;;;;;;61.10;31.70;;;;;;;6.17;92.49;101182.70;110443;1267;22345;-59
2023/04/09 07:28:39;;;;;;;65.50;33.00;;;;;;;6.18;92.58;101189.33;110409;1267;22858;-57
2023/04/09 07:31:10;;;;;;;65.30;31.10;;;;;;;6.18;92.72;101199.31;110421;1260;23024;-59
2023/04/09 07:33:41;;;;;;;61.80;30.90;;;;;;;6.18;93.20;101200.19;110420;1267;22668;-58
2023/04/09 07:36:11;;;;;;;66.50;33.80;;;;;;;6.14;93.18;101194.71;110427;1267;22972;-58
2023/04/09 07:38:43;;;;;;;64.30;32.60;;;;;;;6.12;93.12;101193.50;110419;1269;22175;-57
2023/04/09 07:41:14;;;;;;;65.50;33.00;;;;;;;6.12;93.18;101193.59;110460;1267;23046;-59
2023/04/09 07:43:45;;;;;;;69.70;35.80;;;;;;;6.12;93.33;101193.02;110451;1267;23340;-60
2023/04/09 07:46:21;;;;;;;66.40;33.00;;;;;;;6.13;93.36;101197.91;110448;1260;23082;-59
2023/04/09 07:48:52;;;;;;;61.40;29.80;;;;;;;6.12;93.25;101208.79;110481;1267;22993;-60
2023/04/09 07:51:23;;;;;;;61.60;31.40;;;;;;;6.12;93.55;101209.58;110146;1267;22555;-61
2023/04/09 07:53:54;;;;;;;58.20;31.00;;;;;;;6.12;93.48;101206.89;106291;1266;25417;-59
2023/04/09 07:56:25;;;;;;;62.10;30.60;;;;;;;6.12;93.38;101208.72;106331;1273;25542;-59
2023/04/09 07:58:56;;;;;;;63.10;33.00;;;;;;;6.10;93.57;101203.91;106411;1267;22589;-58
2023/04/09 08:01:27;;;;;;;71.80;35.00;;;;;;;6.09;93.65;101200.54;106335;1267;24268;-56
2023/04/09 08:03:58;;;;;;;65.20;34.30;;;;;;;6.11;93.79;101208.49;110370;1267;22327;-57
2023/04/09 08:06:29;;;;;;;65.20;32.50;;;;;;;6.13;94.03;101207.41;110411;1272;22287;-58
2023/04/09 08:09:00;;;;;;;66.20;31.50;;;;;;;6.16;93.89;101212.52;110409;1267;22352;-57
2023/04/09 08:11:31;;;;;;;63.90;32.50;;;;;;;6.18;93.80;101205.96;110416;1260;22331;-57
2023/04/09 08:14:03;;;;;;;65.20;31.70;;;;;;;6.20;93.78;101204.50;110420;1264;22314;-56
2023/04/09 08:16:34;;;;;;;65.60;33.30;;;;;;;6.22;94.05;101195.98;110391;1264;22382;-56
2023/04/09 08:19:05;;;;;;;65.60;32.30;;;;;;;6.24;93.97;101195.32;110389;1266;22255;-55
2023/04/09 08:21:39;;;;;;;68.00;34.70;;;;;;;6.27;94.01;101200.33;110454;1266;23284;-57
2023/04/09 08:24:10;;;;;;;65.50;32.60;;;;;;;6.30;94.23;101199.31;110427;1267;22157;-56
2023/04/09 08:26:42;;;;;;;59.80;30.60;;;;;;;6.32;94.29;101197.13;110421;1267;23056;-54
2023/04/09 08:29:14;;;;;;;67.90;33.30;;;;;;;6.35;94.47;101198.73;110429;1267;22899;-56
2023/04/09 08:31:45;;;;;;;59.40;32.60;;;;;;;6.36;94.66;101200.14;110385;1267;23499;-57
2023/04/09 08:34:19;;;;;;;64.20;32.70;;;;;;;6.39;94.57;101204.61;110415;1259;22217;-58
2023/04/09 08:36:50;;;;;;;59.00;30.20;;;;;;;6.42;94.57;101202.64;110455;1267;22230;-56
2023/04/09 08:39:21;;;;;;;62.70;30.60;;;;;;;6.44;94.51;101209.88;110434;1267;23397;-62
2023/04/09 08:41:53;;;;;;;61.00;31.40;;;;;;;6.46;94.58;101204.92;110391;1267;22206;-58
2023/04/09 08:44:27;;;;;;;64.50;32.30;;;;;;;6.49;94.53;101209.45;110426;1267;22933;-58
2023/04/09 08:46:59;;;;;;;66.10;33.90;;;;;;;6.53;94.76;101210.25;110425;1267;22150;-57
2023/04/09 08:49:30;;;;;;;59.80;31.70;;;;;;;6.57;94.79;101210.02;110393;1264;22318;-56
2023/04/09 08:52:01;;;;;;;64.30;30.60;;;;;;;6.60;94.91;101209.64;110415;1260;23271;-55
2023/04/09 08:54:33;;;;;;;59.30;31.90;;;;;;;6.62;94.69;101206.91;110448;1267;22325;-56
2023/04/09 08:57:06;;;;;;;61.00;29.90;;;;;;;6.63;94.70;101204.50;110419;1264;22192;-57
2023/04/09 08:59:37;;;;;;;67.50;33.70;;;;;;;6.64;94.76;101208.52;108806;1259;24332;-57
2023/04/09 09:02:12;;;;;;;66.80;33.40;;;;;;;6.67;94.96;101209.56;110434;1267;22282;-55
2023/04/09 09:04:52;;;;;;;62.70;32.00;;;;;;;6.70;94.89;101212.27;110412;1267;22163;-57
2023/04/09 09:07:23;;;;;;;63.00;30.20;;;;;;;6.71;94.70;101211.46;110428;1259;23090;-58
2023/04/09 09:09:56;;;;;;;57.60;29.60;;;;;;;6.71;94.55;101214.79;110439;1267;22147;-58
2023/04/09 09:12:38;;;;;;;61.10;31.50;;;;;;;6.70;94.38;101216.16;110442;1259;22178;-58
2023/04/09 09:15:30;;;;;;;63.00;31.20;;;;;;;6.69;94.35;101213.88;110460;1259;22218;-55
2023/04/09 09:18:02;;;;;;;57.60;30.00;;;;;;;6.68;94.31;101217.32;110439;1264;22295;-56
2023/04/09 09:20:33;;;;;;;62.80;30.20;;;;;;;6.68;94.38;101218.81;110417;1263;22159;-57
2023/04/09 09:23:04;;;;;;;56.10;29.10;;;;;;;6.70;94.35;101219.49;110270;1260;22573;-57
2023/04/09 09:25:39;;;;;;;65.30;32.90;;;;;;;6.72;94.64;101217.22;106511;1274;24219;-56
2023/04/09 09:28:11;;;;;;;61.90;31.50;;;;;;;6.74;94.83;101218.61;110429;1267;22182;-57
2023/04/09 09:30:42;;;;;;;62.70;32.00;;;;;;;6.75;94.79;101216.05;110439;1271;23031;-57
2023/04/09 09:33:13;;;;;;;62.90;31.80;;;;;;;6.77;95.04;101216.00;110443;1259;22205;-56
2023/04/09 09:35:53;;;;;;;64.10;32.50;;;;;;;6.79;95.46;101213.27;110420;1264;22147;-57
2023/04/09 09:38:23;;;;;;;60.20;30.60;;;;;;;6.80;95.43;101212.92;110456;1267;22211;-56
2023/04/09 09:40:54;;;;;;;68.60;33.40;;;;;;;6.80;95.38;101218.08;110424;1267;22382;-57
2023/04/09 09:43:25;;;;;;;63.60;32.40;;;;;;;6.81;95.31;101215.67;110419;1256;22185;-58
2023/04/09 09:45:58;;;;;;;68.00;34.10;;;;;;;6.82;95.37;101219.70;110433;1267;22148;-58
2023/04/09 09:48:30;;;;;;;68.40;33.80;;;;;;;6.83;95.36;101219.90;110466;1274;22428;-58
2023/04/09 09:51:03;;;;;;;69.60;35.80;;;;;;;6.85;95.43;101219.23;110400;1259;23025;-57
2023/04/09 09:53:35;;;;;;;67.90;34.30;;;;;;;6.87;95.48;101216.66;110453;1267;22871;-56
2023/04/09 09:56:13;;;;;;;64.10;35.00;;;;;;;6.90;95.66;101214.46;110427;1269;23071;-57
2023/04/09 09:58:50;;;;;;;64.70;33.80;;;;;;;6.92;95.70;101210.91;110395;1268;22190;-58
2023/04/09 10:01:25;;;;;;;62.60;32.00;;;;;;;6.94;95.54;101210.88;110420;1267;22200;-57
2023/04/09 10:03:58;;;;;;;62.70;32.80;;;;;;;6.95;95.69;101206.89;110453;1267;22235;-58
2023/04/09 10:06:30;;;;;;;63.80;32.70;;;;;;;6.94;95.59;101200.63;110468;1274;22149;-55
2023/04/09 10:09:06;;;;;;;56.20;30.00;;;;;;;6.95;95.50;101195.79;110401;1259;22266;-57
2023/04/09 10:11:41;;;;;;;63.50;32.50;;;;;;;6.95;95.44;101195.46;110437;1260;22252;-55
2023/04/09 10:14:12;;;;;;;63.20;31.90;;;;;;;6.97;95.33;101202.38;110437;1267;22381;-59
2023/04/09 10:16:43;;;;;;;61.70;31.80;;;;;;;6.98;95.22;101204.83;109912;1267;22513;-55
2023/04/09 10:19:15;;;;;;;64.20;32.40;;;;;;;6.97;95.15;101205.70;106408;1259;25571;-56
2023/04/09 10:21:53;;;;;;;57.60;29.90;;;;;;;6.99;95.65;101209.50;110407;1267;22192;-56
2023/04/09 10:24:24;;;;;;;63.10;30.90;;;;;;;6.99;95.43;101210.35;110465;1271;23130;-58
2023/04/09 10:27:09;;;;;;;65.10;32.70;;;;;;;7.02;95.70;101211.23;110407;1267;22182;-59
2023/04/09 10:29:45;;;;;;;63.80;33.10;;;;;;;7.04;95.59;101210.00;110354;1268;22371;-58
2023/04/09 10:32:21;;;;;;;60.50;31.90;;;;;;;7.06;95.67;101210.75;110428;1272;22843;-58
2023/04/09 10:34:53;;;;;;;65.90;32.00;;;;;;;7.09;95.69;101210.77;110428;1267;22183;-55
2023/04/09 10:37:25;;;;;;;59.00;31.30;;;;;;;7.11;95.67;101210.48;108598;1267;22509;-56
2023/04/09 10:39:57;;;;;;;64.60;33.40;;;;;;;7.13;95.70;101203.27;110421;1267;22239;-57
2023/04/09 10:42:32;;;;;;;66.00;35.40;;;;;;;7.15;95.62;101204.67;110413;1275;22175;-63
2023/04/09 10:45:11;;;;;;;62.00;33.80;;;;;;;7.19;96.06;101205.27;110411;1263;22245;-62
2023/04/09 10:47:45;;;;;;;59.90;30.00;;;;;;;7.25;96.19;101206.48;110405;1267;22166;-57
2023/04/09 10:50:20;;;;;;;64.70;33.30;;;;;;;7.27;95.88;101204.30;110425;1263;22183;-58
2023/04/09 10:52:55;;;;;;;59.80;32.00;;;;;;;7.29;95.94;101207.36;110411;1267;22203;-58
2023/04/09 10:55:48;;;;;;;62.40;32.60;;;;;;;7.33;95.97;101203.60;110421;1267;22218;-59
2023/04/09 10:58:19;;;;;;;60.20;31.00;;;;;;;7.36;95.99;101208.05;110362;1260;22228;-58
2023/04/09 11:00:52;;;;;;;63.90;31.50;;;;;;;7.38;95.75;101208.16;110307;1276;22277;-57
2023/04/09 11:03:26;;;;;;;58.50;31.40;;;;;;;7.40;95.84;101206.85;109321;1269;24250;-58
2023/04/09 11:06:01;;;;;;;58.30;32.00;;;;;;;7.44;96.05;101203.96;107317;1265;22587;-57
2023/04/09 11:08:33;;;;;;;60.60;32.30;;;;;;;7.47;96.04;101201.13;106253;1273;22589;-54
2023/04/09 11:11:04;;;;;;;66.90;34.50;;;;;;;7.46;95.64;101197.89;110315;1273;22322;-57
2023/04/09 11:13:36;;;;;;;61.70;30.00;;;;;;;7.45;95.75;101201.97;110337;1269;22440;-57
2023/04/09 11:16:07;;;;;;;57.20;29.20;;;;;;;7.44;95.71;101202.71;110382;1268;22346;-57
2023/04/09 11:18:39;;;;;;;58.30;30.10;;;;;;;7.40;95.81;101201.14;110347;1269;22207;-57
2023/04/09 11:21:12;;;;;;;54.90;27.90;;;;;;;7.38;95.76;101196.97;110348;1269;23189;-56
2023/04/09 11:23:51;;;;;;;54.00;27.20;;;;;;;7.35;95.67;101193.70;110341;1268;22629;-58
2023/04/09 11:26:34;;;;;;;60.80;29.80;;;;;;;7.33;95.79;101188.84;110265;1269;22355;-57
2023/04/09 11:29:09;;;;;;;60.80;28.60;;;;;;;7.31;95.80;101188.08;110368;1262;22201;-57
2023/04/09 11:31:44;;;;;;;53.40;26.10;;;;;;;7.29;95.76;101184.17;110340;1273;22462;-57